createdAt,value
2022-11-25T00:00:39.216Z,7.69
2022-11-25T00:01:38.464Z,7.69
2022-11-25T00:02:37.793Z,7.70
2022-11-25T00:03:38.007Z,7.66
2022-11-25T00:04:38.257Z,7.67
2022-11-25T00:05:40.444Z,7.67
2022-11-25T00:06:40.638Z,7.63
2022-11-25T00:07:39.164Z,7.66
2022-11-25T00:08:39.455Z,7.66
2022-11-25T00:09:39.733Z,7.67
2022-11-25T00:10:40.030Z,7.54
2022-11-25T00:11:42.218Z,7.61
2022-11-25T00:12:40.588Z,7.56
2022-11-25T00:13:40.877Z,7.51
2022-11-25T00:14:41.174Z,7.57
2022-11-25T00:15:41.474Z,7.57
2022-11-25T00:16:48.035Z,7.60
2022-11-25T00:17:42.004Z,7.54
2022-11-25T00:18:44.196Z,7.56
2022-11-25T00:19:42.571Z,7.54
2022-11-25T00:20:42.857Z,7.61
2022-11-25T00:21:45.049Z,7.63
2022-11-25T00:22:43.417Z,7.66
2022-11-25T00:23:43.719Z,7.63
2022-11-25T00:24:46.861Z,7.66
2022-11-25T00:25:44.255Z,7.61
2022-11-25T00:26:46.423Z,7.63
2022-11-25T00:27:44.797Z,7.60
2022-11-25T00:28:46.990Z,7.58
2022-11-25T00:29:45.358Z,7.58
2022-11-25T00:30:45.649Z,7.54
2022-11-25T00:31:46.976Z,7.63
2022-11-25T00:32:48.130Z,7.60
2022-11-25T00:33:46.903Z,7.57
2022-11-25T00:34:46.746Z,7.53
2022-11-25T00:35:47.061Z,7.51
2022-11-25T00:36:49.245Z,7.50
2022-11-25T00:37:47.624Z,7.54
2022-11-25T00:38:50.752Z,7.53
2022-11-25T00:39:50.010Z,7.51
2022-11-25T00:40:48.500Z,7.48
2022-11-25T00:41:49.744Z,7.48
2022-11-25T00:42:49.914Z,7.48
2022-11-25T00:43:51.294Z,7.48
2022-11-25T00:44:50.491Z,7.50
2022-11-25T00:45:51.913Z,7.50
2022-11-25T00:46:51.068Z,7.50
2022-11-25T00:47:51.484Z,7.45
2022-11-25T00:48:52.741Z,7.48
2022-11-25T00:49:52.058Z,7.43
2022-11-25T00:50:52.221Z,7.48
2022-11-25T00:51:52.638Z,7.50
2022-11-25T00:52:51.994Z,7.54
2022-11-25T00:53:58.768Z,7.53
2022-11-25T00:54:53.587Z,7.45
2022-11-25T00:55:52.830Z,7.56
2022-11-25T00:56:54.988Z,7.53
2022-11-25T00:57:53.371Z,7.51
2022-11-25T00:58:55.559Z,7.47
2022-11-25T00:59:54.890Z,7.48
2022-11-25T01:00:54.340Z,7.47
2022-11-25T01:01:55.483Z,7.48
2022-11-25T01:02:56.671Z,7.47
2022-11-25T01:03:56.862Z,7.45
2022-11-25T01:04:57.059Z,7.50
2022-11-25T01:05:57.753Z,7.54
2022-11-25T01:06:56.294Z,7.50
2022-11-25T01:07:56.426Z,7.42
2022-11-25T01:08:57.610Z,7.42
2022-11-25T01:09:57.823Z,7.45
2022-11-25T01:10:59.010Z,7.47
2022-11-25T01:11:59.200Z,7.47
2022-11-25T01:12:59.901Z,7.42
2022-11-25T01:14:01.739Z,7.36
2022-11-25T01:15:00.301Z,7.42
2022-11-25T01:16:00.558Z,7.38
2022-11-25T01:17:01.626Z,7.42
2022-11-25T01:18:01.368Z,7.33
2022-11-25T01:19:01.566Z,7.38
2022-11-25T01:20:01.761Z,7.38
2022-11-25T01:21:01.937Z,7.40
2022-11-25T01:22:02.130Z,7.43
2022-11-25T01:23:00.871Z,7.45
2022-11-25T01:24:01.177Z,7.33
2022-11-25T01:25:03.351Z,7.35
2022-11-25T01:26:01.717Z,7.29
2022-11-25T01:27:02.018Z,7.31
2022-11-25T01:28:02.326Z,7.31
2022-11-25T01:29:02.617Z,7.31
2022-11-25T01:30:04.818Z,7.31
2022-11-25T01:31:03.254Z,7.29
2022-11-25T01:32:03.474Z,7.29
2022-11-25T01:33:05.607Z,7.29
2022-11-25T01:34:03.994Z,7.29
2022-11-25T01:35:04.285Z,7.23
2022-11-25T01:36:04.588Z,7.14
2022-11-25T01:37:06.754Z,7.18
2022-11-25T01:38:05.125Z,7.14
2022-11-25T01:39:05.415Z,7.14
2022-11-25T01:40:05.702Z,7.11
2022-11-25T01:41:05.994Z,7.14
2022-11-25T01:42:08.296Z,7.13
2022-11-25T01:43:08.373Z,7.11
2022-11-25T01:44:06.876Z,7.11
2022-11-25T01:45:07.156Z,7.06
2022-11-25T01:46:07.474Z,7.10
2022-11-25T01:47:09.630Z,7.05
2022-11-25T01:48:09.833Z,7.06
2022-11-25T01:49:08.316Z,7.03
2022-11-25T01:50:08.612Z,7.05
2022-11-25T01:51:08.901Z,7.05
2022-11-25T01:52:11.102Z,7.05
2022-11-25T01:53:09.469Z,7.06
2022-11-25T01:54:09.775Z,7.10
2022-11-25T01:55:10.072Z,6.97
2022-11-25T01:56:10.360Z,7.02
2022-11-25T01:57:12.671Z,7.07
2022-11-25T01:58:10.925Z,7.02
2022-11-25T01:59:11.242Z,7.07
2022-11-25T02:00:11.539Z,7.06
2022-11-25T02:01:11.887Z,7.06
2022-11-25T02:02:14.063Z,7.05
2022-11-25T02:03:12.303Z,7.03
2022-11-25T02:04:12.597Z,7.06
2022-11-25T02:05:14.757Z,7.07
2022-11-25T02:06:13.147Z,7.11
2022-11-25T02:07:15.393Z,7.13
2022-11-25T02:08:13.767Z,7.11
2022-11-25T02:09:14.069Z,7.11
2022-11-25T02:10:14.367Z,7.13
2022-11-25T02:11:16.557Z,7.13
2022-11-25T02:12:16.747Z,7.18
2022-11-25T02:13:15.243Z,7.14
2022-11-25T02:14:15.547Z,7.13
2022-11-25T02:15:15.837Z,7.13
2022-11-25T02:16:16.322Z,7.14
2022-11-25T02:17:16.393Z,7.11
2022-11-25T02:18:18.595Z,7.10
2022-11-25T02:19:16.965Z,7.11
2022-11-25T02:20:19.170Z,7.07
2022-11-25T02:21:17.582Z,7.10
2022-11-25T02:22:17.873Z,7.14
2022-11-25T02:23:20.059Z,7.11
2022-11-25T02:24:18.436Z,7.03
2022-11-25T02:25:20.616Z,7.02
2022-11-25T02:26:18.992Z,6.96
2022-11-25T02:27:19.292Z,6.92
2022-11-25T02:28:19.588Z,6.95
2022-11-25T02:29:19.875Z,6.89
2022-11-25T02:30:23.042Z,6.99
2022-11-25T02:31:22.372Z,6.97
2022-11-25T02:32:21.693Z,6.89
2022-11-25T02:33:23.859Z,6.87
2022-11-25T02:34:22.267Z,6.84
2022-11-25T02:35:22.425Z,6.88
2022-11-25T02:36:23.818Z,6.85
2022-11-25T02:37:23.002Z,6.87
2022-11-25T02:38:23.428Z,6.82
2022-11-25T02:39:23.578Z,6.88
2022-11-25T02:40:23.059Z,6.77
2022-11-25T02:41:25.249Z,6.82
2022-11-25T02:42:25.456Z,6.81
2022-11-25T02:43:25.636Z,6.79
2022-11-25T02:44:25.850Z,6.78
2022-11-25T02:45:26.593Z,6.74
2022-11-25T02:46:26.820Z,6.81
2022-11-25T02:47:26.881Z,6.77
2022-11-25T02:48:52.703Z,6.69
2022-11-25T02:49:26.610Z,6.72
2022-11-25T02:50:25.847Z,6.70
2022-11-25T02:51:28.025Z,6.74
2022-11-25T02:52:28.225Z,6.78
2022-11-25T02:53:28.400Z,6.72
2022-11-25T02:54:28.609Z,6.70
2022-11-25T02:55:27.341Z,6.69
2022-11-25T02:56:30.290Z,6.72
2022-11-25T02:57:27.921Z,6.78
2022-11-25T02:58:28.210Z,6.74
2022-11-25T02:59:29.403Z,6.77
2022-11-25T03:00:30.567Z,6.74
2022-11-25T03:01:30.867Z,6.79
2022-11-25T03:02:30.972Z,6.75
2022-11-25T03:03:29.692Z,6.72
2022-11-25T03:04:29.985Z,6.75
2022-11-25T03:05:30.277Z,6.72
2022-11-25T03:06:32.472Z,6.77
2022-11-25T03:07:32.672Z,6.81
2022-11-25T03:08:31.153Z,6.81
2022-11-25T03:09:31.541Z,6.78
2022-11-25T03:10:31.705Z,6.74
2022-11-25T03:11:33.888Z,6.74
2022-11-25T03:12:34.093Z,6.79
2022-11-25T03:13:34.284Z,6.81
2022-11-25T03:14:34.750Z,6.82
2022-11-25T03:15:35.177Z,6.82
2022-11-25T03:16:35.428Z,6.82
2022-11-25T03:17:34.796Z,6.88
2022-11-25T03:18:34.155Z,6.93
2022-11-25T03:19:36.352Z,6.82
2022-11-25T03:20:34.722Z,6.85
2022-11-25T03:21:36.913Z,6.85
2022-11-25T03:22:37.102Z,6.82
2022-11-25T03:23:37.297Z,6.82
2022-11-25T03:24:36.220Z,6.81
2022-11-25T03:25:38.140Z,6.81
2022-11-25T03:26:38.378Z,6.75
2022-11-25T03:27:38.505Z,6.70
2022-11-25T03:28:37.005Z,6.69
2022-11-25T03:29:39.202Z,6.70
2022-11-25T03:30:39.403Z,6.70
2022-11-25T03:31:37.915Z,6.77
2022-11-25T03:32:40.084Z,6.75
2022-11-25T03:33:38.462Z,6.63
2022-11-25T03:34:38.899Z,6.66
2022-11-25T03:35:39.066Z,6.60
2022-11-25T03:36:41.282Z,6.64
2022-11-25T03:37:41.496Z,6.60
2022-11-25T03:38:39.873Z,6.62
2022-11-25T03:39:40.174Z,6.62
2022-11-25T03:40:40.464Z,6.63
2022-11-25T03:41:40.760Z,6.63
2022-11-25T03:42:42.944Z,6.72
2022-11-25T03:43:41.329Z,6.56
2022-11-25T03:44:43.502Z,6.56
2022-11-25T03:45:43.727Z,6.57
2022-11-25T03:46:42.191Z,6.60
2022-11-25T03:47:44.393Z,6.62
2022-11-25T03:48:42.761Z,6.62
2022-11-25T03:49:44.948Z,6.60
2022-11-25T03:50:43.317Z,6.63
2022-11-25T03:51:45.515Z,6.59
2022-11-25T03:52:43.885Z,6.54
2022-11-25T03:53:46.088Z,6.44
2022-11-25T03:54:46.283Z,6.45
2022-11-25T03:55:44.782Z,6.49
2022-11-25T03:56:45.079Z,6.42
2022-11-25T03:57:45.377Z,6.42
2022-11-25T03:58:47.584Z,6.39
2022-11-25T03:59:45.955Z,6.39
2022-11-25T04:00:48.245Z,6.33
2022-11-25T04:01:48.372Z,6.30
2022-11-25T04:02:46.929Z,6.30
2022-11-25T04:03:47.094Z,6.36
2022-11-25T04:04:49.275Z,6.28
2022-11-25T04:05:47.649Z,6.28
2022-11-25T04:06:49.831Z,6.27
2022-11-25T04:07:48.545Z,6.27
2022-11-25T04:08:48.523Z,6.36
2022-11-25T04:09:48.817Z,6.27
2022-11-25T04:10:51.006Z,6.24
2022-11-25T04:11:49.376Z,6.22
2022-11-25T04:12:49.687Z,6.26
2022-11-25T04:13:49.977Z,6.24
2022-11-25T04:14:50.263Z,6.26
2022-11-25T04:15:53.399Z,6.22
2022-11-25T04:16:51.076Z,6.26
2022-11-25T04:17:51.035Z,6.31
2022-11-25T04:18:51.326Z,6.31
2022-11-25T04:19:51.687Z,6.31
2022-11-25T04:20:53.802Z,6.33
2022-11-25T04:21:54.004Z,6.28
2022-11-25T04:22:54.186Z,6.31
2022-11-25T04:23:52.817Z,6.33
2022-11-25T04:24:53.105Z,6.28
2022-11-25T04:25:55.296Z,6.33
2022-11-25T04:26:53.671Z,6.33
2022-11-25T04:27:56.810Z,6.41
2022-11-25T04:28:54.195Z,6.51
2022-11-25T04:29:57.351Z,6.59
2022-11-25T04:30:55.768Z,6.48
2022-11-25T04:31:55.834Z,6.38
2022-11-25T04:32:56.283Z,6.41
2022-11-25T04:33:56.603Z,6.44
2022-11-25T04:34:56.826Z,6.35
2022-11-25T04:35:56.986Z,6.36
2022-11-25T04:36:57.406Z,6.39
2022-11-25T04:37:58.657Z,6.35
2022-11-25T04:38:57.029Z,6.36
2022-11-25T04:39:57.325Z,6.30
2022-11-25T04:40:57.618Z,6.33
2022-11-25T04:42:00.086Z,6.33
2022-11-25T04:43:04.876Z,6.31
2022-11-25T04:43:59.523Z,6.28
2022-11-25T04:45:21.325Z,6.35
2022-11-25T04:46:13.677Z,6.28
2022-11-25T04:47:00.395Z,6.27
2022-11-25T04:48:01.498Z,6.33
2022-11-25T04:48:59.869Z,6.30
2022-11-25T04:50:02.099Z,6.30
2022-11-25T04:51:01.418Z,6.28
2022-11-25T04:52:01.768Z,6.35
2022-11-25T04:53:02.952Z,6.30
2022-11-25T04:54:02.174Z,6.39
2022-11-25T04:55:01.652Z,6.33
2022-11-25T04:56:04.779Z,6.35
2022-11-25T04:57:02.167Z,6.28
2022-11-25T04:58:04.368Z,6.31
2022-11-25T04:59:02.737Z,6.41
2022-11-25T05:00:03.049Z,6.36
2022-11-25T05:01:03.362Z,6.33
2022-11-25T05:02:03.661Z,6.35
2022-11-25T05:03:05.808Z,6.33
2022-11-25T05:04:05.993Z,6.41
2022-11-25T05:05:06.298Z,6.28
2022-11-25T05:06:06.403Z,6.33
2022-11-25T05:07:05.212Z,6.35
2022-11-25T05:08:07.220Z,6.38
2022-11-25T05:09:05.659Z,6.38
2022-11-25T05:10:05.841Z,6.28
2022-11-25T05:11:06.141Z,6.36
2022-11-25T05:12:06.440Z,6.42
2022-11-25T05:13:10.113Z,6.41
2022-11-25T05:14:07.008Z,6.36
2022-11-25T05:15:07.312Z,6.39
2022-11-25T05:16:07.615Z,6.33
2022-11-25T05:17:09.767Z,6.36
2022-11-25T05:18:09.964Z,6.31
2022-11-25T05:19:08.449Z,6.35
2022-11-25T05:20:08.751Z,6.38
2022-11-25T05:21:10.942Z,6.41
2022-11-25T05:22:11.160Z,6.41
2022-11-25T05:23:11.322Z,6.27
2022-11-25T05:24:10.686Z,6.38
2022-11-25T05:25:11.893Z,6.33
2022-11-25T05:26:12.077Z,6.45
2022-11-25T05:27:12.273Z,6.36
2022-11-25T05:28:12.971Z,6.33
2022-11-25T05:29:11.339Z,6.35
2022-11-25T05:30:11.643Z,6.36
2022-11-25T05:31:15.401Z,6.31
2022-11-25T05:32:13.990Z,6.36
2022-11-25T05:33:14.193Z,6.28
2022-11-25T05:34:12.931Z,6.35
2022-11-25T05:35:15.085Z,6.42
2022-11-25T05:36:15.287Z,6.45
2022-11-25T05:37:18.708Z,6.38
2022-11-25T05:38:15.112Z,6.46
2022-11-25T05:39:14.339Z,6.46
2022-11-25T05:40:14.644Z,6.48
2022-11-25T05:41:14.943Z,6.52
2022-11-25T05:42:17.163Z,6.51
2022-11-25T05:43:15.528Z,6.46
2022-11-25T05:44:21.232Z,6.46
2022-11-25T05:45:17.130Z,6.44
2022-11-25T05:46:18.377Z,6.54
2022-11-25T05:47:18.513Z,6.51
2022-11-25T05:48:16.885Z,6.52
2022-11-25T05:49:17.180Z,6.51
2022-11-25T05:50:17.472Z,6.56
2022-11-25T05:51:17.757Z,6.46
2022-11-25T05:52:18.057Z,6.45
2022-11-25T05:53:20.241Z,6.51
2022-11-25T05:54:20.441Z,6.44
2022-11-25T05:55:18.936Z,6.51
2022-11-25T05:56:21.123Z,6.52
2022-11-25T05:57:19.492Z,6.45
2022-11-25T05:58:22.092Z,6.56
2022-11-25T05:59:20.104Z,6.49
2022-11-25T06:00:25.110Z,6.60
2022-11-25T06:01:23.574Z,6.57
2022-11-25T06:02:20.985Z,6.52
2022-11-25T06:03:23.184Z,6.54
2022-11-25T06:04:21.592Z,6.54
2022-11-25T06:05:21.885Z,6.60
2022-11-25T06:06:22.187Z,6.54
2022-11-25T06:07:22.523Z,6.56
2022-11-25T06:08:24.735Z,6.60
2022-11-25T06:09:23.114Z,6.56
2022-11-25T06:10:25.327Z,6.64
2022-11-25T06:11:24.642Z,6.62
2022-11-25T06:12:26.019Z,6.57
2022-11-25T06:13:26.046Z,6.59
2022-11-25T06:14:24.547Z,6.62
2022-11-25T06:15:26.724Z,6.62
2022-11-25T06:16:25.230Z,6.63
2022-11-25T06:17:25.357Z,6.67
2022-11-25T06:18:27.546Z,6.63
2022-11-25T06:19:25.914Z,6.63
2022-11-25T06:20:26.209Z,6.72
2022-11-25T06:21:28.396Z,6.67
2022-11-25T06:22:26.770Z,6.66
2022-11-25T06:23:27.065Z,6.70
2022-11-25T06:24:30.209Z,6.78
2022-11-25T06:25:27.605Z,6.78
2022-11-25T06:26:31.258Z,6.75
2022-11-25T06:27:43.969Z,6.75
2022-11-25T06:28:30.400Z,6.72
2022-11-25T06:29:28.766Z,6.77
2022-11-25T06:30:30.055Z,6.74
2022-11-25T06:31:30.429Z,6.77
2022-11-25T06:32:35.222Z,6.81
2022-11-25T06:33:34.240Z,6.78
2022-11-25T06:34:31.978Z,6.78
2022-11-25T06:35:30.617Z,6.75
2022-11-25T06:36:33.267Z,6.77
2022-11-25T06:37:31.021Z,6.78
2022-11-25T06:38:32.310Z,6.79
2022-11-25T06:39:34.998Z,6.82
2022-11-25T06:40:33.750Z,6.81
2022-11-25T06:41:33.115Z,6.84
2022-11-25T06:42:33.276Z,6.85
2022-11-25T06:43:34.651Z,6.81
2022-11-25T06:44:34.217Z,6.79
2022-11-25T06:45:34.268Z,6.84
2022-11-25T06:46:35.531Z,6.95
2022-11-25T06:47:33.893Z,6.88
2022-11-25T06:48:36.084Z,6.82
2022-11-25T06:49:34.468Z,6.92
2022-11-25T06:50:34.777Z,6.84
2022-11-25T06:51:36.035Z,6.87
2022-11-25T06:52:35.406Z,6.93
2022-11-25T06:53:36.615Z,6.92
2022-11-25T06:54:37.956Z,6.92
2022-11-25T06:55:37.931Z,6.88
2022-11-25T06:56:37.505Z,6.84
2022-11-25T06:57:38.736Z,6.92
2022-11-25T06:58:38.931Z,6.95
2022-11-25T06:59:39.126Z,6.87
2022-11-25T07:00:37.760Z,6.92
2022-11-25T07:01:38.168Z,6.89
2022-11-25T07:02:43.979Z,6.92
2022-11-25T07:03:41.525Z,7.00
2022-11-25T07:04:38.939Z,6.93
2022-11-25T07:05:39.238Z,6.89
2022-11-25T07:06:39.551Z,6.97
2022-11-25T07:07:40.763Z,6.99
2022-11-25T07:08:41.935Z,6.97
2022-11-25T07:09:42.125Z,7.02
2022-11-25T07:10:42.334Z,6.97
2022-11-25T07:11:42.984Z,7.02
2022-11-25T07:12:43.195Z,6.96
2022-11-25T07:13:43.379Z,6.93
2022-11-25T07:14:42.034Z,6.97
2022-11-25T07:15:44.283Z,6.99
2022-11-25T07:16:43.935Z,7.00
2022-11-25T07:17:44.851Z,7.06
2022-11-25T07:18:43.259Z,6.95
2022-11-25T07:19:43.577Z,6.95
2022-11-25T07:20:45.775Z,6.97
2022-11-25T07:21:44.170Z,6.95
2022-11-25T07:22:44.502Z,6.96
2022-11-25T07:23:46.678Z,6.96
2022-11-25T07:24:46.870Z,7.02
2022-11-25T07:25:47.058Z,7.05
2022-11-25T07:26:45.861Z,6.99
2022-11-25T07:27:47.901Z,6.99
2022-11-25T07:28:48.098Z,6.96
2022-11-25T07:30:10.183Z,6.99
2022-11-25T07:31:22.696Z,7.05
2022-11-25T07:31:50.141Z,7.07
2022-11-25T07:32:47.551Z,7.02
2022-11-25T07:33:47.871Z,7.05
2022-11-25T07:34:48.202Z,7.07
2022-11-25T07:35:50.378Z,7.11
2022-11-25T07:36:50.556Z,7.06
2022-11-25T07:37:49.121Z,7.20
2022-11-25T07:38:49.419Z,7.17
2022-11-25T07:39:51.622Z,7.15
2022-11-25T07:40:50.022Z,7.17
2022-11-25T07:41:52.221Z,7.17
2022-11-25T07:42:50.606Z,7.10
2022-11-25T07:43:50.931Z,7.11
2022-11-25T07:44:53.120Z,7.21
2022-11-25T07:45:51.552Z,7.24
2022-11-25T07:46:53.739Z,7.21
2022-11-25T07:47:52.138Z,7.20
2022-11-25T07:48:54.462Z,7.18
2022-11-25T07:49:54.521Z,7.20
2022-11-25T07:50:54.713Z,7.23
2022-11-25T07:51:53.361Z,7.20
2022-11-25T07:52:55.603Z,7.23
2022-11-25T07:53:54.012Z,7.20
2022-11-25T07:54:54.349Z,7.29
2022-11-25T07:55:54.954Z,7.25
2022-11-25T07:56:54.969Z,7.25
2022-11-25T07:57:57.145Z,7.20
2022-11-25T07:58:55.546Z,7.20
2022-11-25T07:59:55.881Z,7.21
2022-11-25T08:00:56.201Z,7.21
2022-11-25T08:01:58.440Z,7.23
2022-11-25T08:02:58.614Z,7.23
2022-11-25T08:03:58.766Z,7.23
2022-11-25T08:04:57.409Z,7.20
2022-11-25T08:05:57.728Z,7.21
2022-11-25T08:06:58.055Z,7.17
2022-11-25T08:07:58.431Z,7.23
2022-11-25T08:09:00.561Z,7.24
2022-11-25T08:09:58.848Z,7.25
2022-11-25T08:11:01.034Z,7.28
2022-11-25T08:11:59.449Z,7.29
2022-11-25T08:13:01.648Z,7.24
2022-11-25T08:14:01.851Z,7.25
2022-11-25T08:15:02.029Z,7.21
2022-11-25T08:16:02.292Z,7.24
2022-11-25T08:17:02.889Z,7.29
2022-11-25T08:18:02.298Z,7.20
2022-11-25T08:19:04.506Z,7.31
2022-11-25T08:20:03.691Z,7.32
2022-11-25T08:21:03.048Z,7.23
2022-11-25T08:22:03.391Z,7.28
2022-11-25T08:23:04.627Z,7.28
2022-11-25T08:24:02.917Z,7.24
2022-11-25T08:25:04.188Z,7.33
2022-11-25T08:26:03.588Z,7.39
2022-11-25T08:27:03.918Z,7.32
2022-11-25T08:28:06.128Z,7.28
2022-11-25T08:29:04.533Z,7.32
2022-11-25T08:30:07.834Z,7.23
2022-11-25T08:31:07.008Z,7.31
2022-11-25T08:32:11.587Z,7.31
2022-11-25T08:33:07.328Z,7.25
2022-11-25T08:34:07.544Z,7.25
2022-11-25T08:35:08.226Z,7.33
2022-11-25T08:36:08.472Z,7.31
2022-11-25T08:37:07.850Z,7.28
2022-11-25T08:38:10.555Z,7.28
2022-11-25T08:39:28.820Z,7.35
2022-11-25T08:40:08.599Z,7.29
2022-11-25T08:41:07.884Z,7.24
2022-11-25T08:42:10.063Z,7.35
2022-11-25T08:43:10.247Z,7.38
2022-11-25T08:44:10.412Z,7.35
2022-11-25T08:45:10.596Z,7.33
2022-11-25T08:46:10.887Z,7.29
2022-11-25T08:47:11.578Z,7.42
2022-11-25T08:48:11.684Z,7.45
2022-11-25T08:49:10.088Z,7.36
2022-11-25T08:50:10.432Z,7.33
2022-11-25T08:51:10.790Z,7.32
2022-11-25T08:52:10.999Z,7.33
2022-11-25T08:53:13.184Z,7.42
2022-11-25T08:54:11.601Z,7.36
2022-11-25T08:55:11.925Z,7.33
2022-11-25T08:56:12.269Z,7.39
2022-11-25T08:57:15.911Z,7.38
2022-11-25T08:58:14.685Z,7.35
2022-11-25T08:59:13.096Z,7.39
2022-11-25T09:00:15.282Z,7.39
2022-11-25T09:01:13.759Z,7.33
2022-11-25T09:02:15.945Z,7.35
2022-11-25T09:03:14.259Z,7.38
2022-11-25T09:04:16.406Z,7.42
2022-11-25T09:05:16.779Z,7.40
2022-11-25T09:06:14.941Z,7.38
2022-11-25T09:07:17.172Z,7.45
2022-11-25T09:08:17.366Z,7.39
2022-11-25T09:09:18.979Z,7.39
2022-11-25T09:10:16.160Z,7.45
2022-11-25T09:11:18.406Z,7.50
2022-11-25T09:12:16.730Z,7.45
2022-11-25T09:13:19.087Z,7.48
2022-11-25T09:14:19.334Z,7.61
2022-11-25T09:15:19.430Z,7.53
2022-11-25T09:16:17.916Z,7.53
2022-11-25T09:17:20.037Z,7.43
2022-11-25T09:18:18.443Z,7.50
2022-11-25T09:19:20.619Z,7.39
2022-11-25T09:20:19.470Z,7.45
2022-11-25T09:21:21.190Z,7.43
2022-11-25T09:22:19.606Z,7.45
2022-11-25T09:23:19.935Z,7.45
2022-11-25T09:24:20.273Z,7.36
2022-11-25T09:25:22.459Z,7.43
2022-11-25T09:26:20.888Z,7.42
2022-11-25T09:27:21.098Z,7.45
2022-11-25T09:28:21.437Z,7.42
2022-11-25T09:29:21.769Z,7.38
2022-11-25T09:30:23.965Z,7.48
2022-11-25T09:31:22.408Z,7.57
2022-11-25T09:32:22.625Z,7.61
2022-11-25T09:33:22.956Z,7.60
2022-11-25T09:34:23.302Z,7.61
2022-11-25T09:35:25.480Z,7.57
2022-11-25T09:36:23.887Z,7.69
2022-11-25T09:37:24.223Z,7.70
2022-11-25T09:38:24.553Z,7.60
2022-11-25T09:39:24.892Z,7.58
2022-11-25T09:40:27.082Z,7.66
2022-11-25T09:41:25.483Z,7.70
2022-11-25T09:42:27.669Z,7.82
2022-11-25T09:43:27.540Z,7.76
2022-11-25T09:44:27.326Z,7.88
2022-11-25T09:45:29.481Z,7.85
2022-11-25T09:46:26.980Z,7.80
2022-11-25T09:47:29.092Z,7.77
2022-11-25T09:48:27.504Z,7.70
2022-11-25T09:49:27.838Z,7.77
2022-11-25T09:50:28.185Z,7.76
2022-11-25T09:51:28.521Z,7.79
2022-11-25T09:52:30.717Z,7.85
2022-11-25T09:53:29.451Z,7.82
2022-11-25T09:54:29.465Z,7.82
2022-11-25T09:55:29.803Z,7.77
2022-11-25T09:56:30.130Z,7.77
2022-11-25T09:57:32.326Z,7.75
2022-11-25T09:58:30.723Z,7.85
2022-11-25T09:59:31.197Z,7.87
2022-11-25T10:00:33.256Z,7.91
2022-11-25T10:01:31.952Z,7.90
2022-11-25T10:02:33.933Z,7.80
2022-11-25T10:03:33.323Z,7.88
2022-11-25T10:04:32.500Z,7.87
2022-11-25T10:05:36.154Z,7.88
2022-11-25T10:06:33.108Z,7.91
2022-11-25T10:07:36.264Z,7.80
2022-11-25T10:08:34.490Z,7.85
2022-11-25T10:09:35.441Z,7.77
2022-11-25T10:10:35.066Z,7.79
2022-11-25T10:11:36.314Z,7.77
2022-11-25T10:12:35.386Z,7.75
2022-11-25T10:13:36.812Z,7.75
2022-11-25T10:14:35.247Z,7.80
2022-11-25T10:15:35.452Z,7.80
2022-11-25T10:16:38.716Z,7.83
2022-11-25T10:17:38.808Z,7.91
2022-11-25T10:18:37.317Z,7.98
2022-11-25T10:19:37.815Z,7.93
2022-11-25T10:20:37.956Z,7.83
2022-11-25T10:21:39.134Z,7.83
2022-11-25T10:22:39.331Z,7.85
2022-11-25T10:23:38.685Z,7.94
2022-11-25T10:24:41.364Z,7.98
2022-11-25T10:25:39.437Z,7.91
2022-11-25T10:26:39.660Z,7.88
2022-11-25T10:27:39.082Z,7.88
2022-11-25T10:28:41.274Z,7.91
2022-11-25T10:29:39.561Z,7.97
2022-11-25T10:30:39.903Z,8.01
2022-11-25T10:31:41.272Z,8.08
2022-11-25T10:32:40.571Z,8.06
2022-11-25T10:33:42.187Z,8.12
2022-11-25T10:34:41.957Z,8.18
2022-11-25T10:35:41.346Z,8.06
2022-11-25T10:36:42.555Z,8.08
2022-11-25T10:37:43.913Z,8.20
2022-11-25T10:38:42.210Z,8.18
2022-11-25T10:39:44.386Z,8.08
2022-11-25T10:40:42.797Z,8.09
2022-11-25T10:41:43.386Z,7.98
2022-11-25T10:42:43.445Z,7.98
2022-11-25T10:43:43.768Z,8.13
2022-11-25T10:44:44.951Z,8.12
2022-11-25T10:45:44.362Z,8.06
2022-11-25T10:47:12.431Z,8.00
2022-11-25T10:47:47.792Z,8.01
2022-11-25T10:48:47.072Z,8.10
2022-11-25T10:49:47.148Z,8.23
2022-11-25T10:50:47.337Z,8.18
2022-11-25T10:51:48.008Z,8.19
2022-11-25T10:52:48.320Z,8.09
2022-11-25T10:53:48.357Z,8.24
2022-11-25T10:54:48.527Z,8.19
2022-11-25T10:55:49.216Z,8.18
2022-11-25T10:56:49.358Z,8.08
2022-11-25T10:57:49.548Z,8.08
2022-11-25T10:58:49.748Z,8.18
2022-11-25T10:59:50.427Z,8.27
2022-11-25T11:00:50.624Z,8.41
2022-11-25T11:01:50.253Z,8.31
2022-11-25T11:02:49.402Z,8.24
2022-11-25T11:03:51.572Z,8.28
2022-11-25T11:04:49.985Z,8.38
2022-11-25T11:05:50.323Z,8.41
2022-11-25T11:06:52.513Z,8.49
2022-11-25T11:07:50.965Z,8.42
2022-11-25T11:08:53.107Z,8.41
2022-11-25T11:09:51.509Z,8.42
2022-11-25T11:10:57.256Z,8.37
2022-11-25T11:11:54.102Z,8.33
2022-11-25T11:12:54.089Z,8.42
2022-11-25T11:13:54.296Z,8.53
2022-11-25T11:14:52.951Z,8.63
2022-11-25T11:15:54.213Z,8.66
2022-11-25T11:16:53.528Z,8.52
2022-11-25T11:17:53.934Z,8.60
2022-11-25T11:18:56.051Z,8.55
2022-11-25T11:19:56.334Z,8.49
2022-11-25T11:20:54.760Z,8.51
2022-11-25T11:21:56.090Z,8.33
2022-11-25T11:22:55.360Z,8.33
2022-11-25T11:23:57.535Z,8.44
2022-11-25T11:24:55.961Z,8.36
2022-11-25T11:25:56.223Z,8.45
2022-11-25T11:26:56.442Z,8.48
2022-11-25T11:27:56.779Z,8.48
2022-11-25T11:28:58.963Z,8.52
2022-11-25T11:29:57.372Z,8.52
2022-11-25T11:30:57.749Z,8.55
2022-11-25T11:31:58.043Z,8.53
2022-11-25T11:33:01.712Z,8.53
2022-11-25T11:33:58.630Z,8.55
2022-11-25T11:34:58.986Z,8.61
2022-11-25T11:35:59.199Z,8.56
2022-11-25T11:36:59.541Z,8.55
2022-11-25T11:38:01.730Z,8.58
2022-11-25T11:39:00.136Z,8.73
2022-11-25T11:40:00.568Z,8.69
2022-11-25T11:41:00.788Z,8.56
2022-11-25T11:42:02.125Z,8.49
2022-11-25T11:43:03.311Z,8.48
2022-11-25T11:44:01.728Z,8.52
2022-11-25T11:45:03.979Z,8.51
2022-11-25T11:46:02.379Z,8.51
2022-11-25T11:47:04.599Z,8.60
2022-11-25T11:48:02.997Z,8.70
2022-11-25T11:49:03.343Z,8.63
2022-11-25T11:50:03.675Z,8.69
2022-11-25T11:51:04.009Z,8.70
2022-11-25T11:52:06.186Z,8.78
2022-11-25T11:53:04.588Z,8.61
2022-11-25T11:54:04.937Z,8.76
2022-11-25T11:55:07.119Z,8.73
2022-11-25T11:57:06.815Z,8.70
2022-11-25T11:58:07.988Z,8.76
2022-11-25T11:59:08.157Z,8.81
2022-11-25T12:00:09.308Z,8.87
2022-11-25T12:01:07.410Z,8.88
2022-11-25T12:02:07.343Z,8.82
2022-11-25T12:03:08.393Z,8.67
2022-11-25T12:04:10.667Z,8.76
2022-11-25T12:05:08.923Z,8.69
2022-11-25T12:06:09.402Z,8.67
2022-11-25T12:07:10.649Z,8.69
2022-11-25T12:08:09.895Z,8.74
2022-11-25T12:09:11.120Z,8.76
2022-11-25T12:10:11.324Z,8.74
2022-11-25T12:11:11.493Z,8.79
2022-11-25T12:12:11.663Z,8.78
2022-11-25T12:13:10.307Z,8.85
2022-11-25T12:14:13.454Z,8.88
2022-11-25T12:15:13.636Z,8.81
2022-11-25T12:16:12.232Z,8.73
2022-11-25T12:17:12.379Z,8.79
2022-11-25T12:18:13.752Z,8.88
2022-11-25T12:19:12.958Z,8.89
2022-11-25T12:20:14.240Z,8.89
2022-11-25T12:21:13.531Z,8.97
2022-11-25T12:22:14.886Z,9.10
2022-11-25T12:23:14.124Z,9.06
2022-11-25T12:24:14.286Z,9.03
2022-11-25T12:25:13.660Z,8.97
2022-11-25T12:26:14.005Z,8.82
2022-11-25T12:27:16.197Z,8.87
2022-11-25T12:28:14.605Z,8.84
2022-11-25T12:29:18.257Z,8.87
2022-11-25T12:30:15.187Z,8.99
2022-11-25T12:31:17.393Z,9.11
2022-11-25T12:32:17.563Z,9.08
2022-11-25T12:33:19.195Z,9.02
2022-11-25T12:34:16.372Z,8.99
2022-11-25T12:35:18.595Z,8.95
2022-11-25T12:36:17.004Z,8.97
2022-11-25T12:37:19.193Z,8.97
2022-11-25T12:38:17.605Z,9.08
2022-11-25T12:39:17.939Z,9.13
2022-11-25T12:40:18.278Z,9.00
2022-11-25T12:41:18.615Z,8.99
2022-11-25T12:42:20.798Z,9.03
2022-11-25T12:43:21.009Z,8.92
2022-11-25T12:44:21.204Z,8.92
2022-11-25T12:45:21.380Z,8.94
2022-11-25T12:46:22.123Z,9.03
2022-11-25T12:47:22.257Z,9.04
2022-11-25T12:48:22.757Z,9.04
2022-11-25T12:49:22.643Z,8.95
2022-11-25T12:50:23.817Z,8.94
2022-11-25T12:51:21.608Z,8.89
2022-11-25T12:52:23.801Z,9.06
2022-11-25T12:53:24.055Z,9.11
2022-11-25T12:54:22.466Z,9.00
2022-11-25T12:55:24.728Z,9.11
2022-11-25T12:56:24.885Z,9.10
2022-11-25T12:57:23.420Z,9.16
2022-11-25T12:58:25.655Z,9.14
2022-11-25T12:59:24.016Z,9.26
2022-11-25T13:00:41.699Z,9.37
2022-11-25T13:01:26.371Z,9.23
2022-11-25T13:02:24.950Z,9.10
2022-11-25T13:03:28.530Z,9.21
2022-11-25T13:04:25.463Z,9.18
2022-11-25T13:05:39.991Z,9.21
2022-11-25T13:06:29.037Z,9.28
2022-11-25T13:07:26.722Z,9.39
2022-11-25T13:08:26.618Z,9.40
2022-11-25T13:09:27.865Z,9.43
2022-11-25T13:10:27.268Z,9.41
2022-11-25T13:11:28.850Z,9.43
2022-11-25T13:12:30.158Z,9.40
2022-11-25T13:13:28.579Z,9.41
2022-11-25T13:14:28.944Z,9.46
2022-11-25T13:15:29.258Z,9.47
2022-11-25T13:16:29.684Z,9.41
2022-11-25T13:17:31.907Z,9.41
2022-11-25T13:18:31.535Z,9.43
2022-11-25T13:19:29.928Z,9.44
2022-11-25T13:20:30.270Z,9.37
2022-11-25T13:21:31.557Z,9.43
2022-11-25T13:22:32.788Z,9.44
2022-11-25T13:23:31.211Z,9.46